Time;durP1;ratioP1;P1;durP2;ratioP2;P2;SDS_P1;SDS_P2;PMS_P1;PMS_P2;Temp;Humidity;BMP_temperature;BMP_pressure;BME280_temperature;BME280_humidity;BME280_pressure;Samples;Min_cycle;Max_cycle;Signal;HPM_P1;HPM_P2
2024/01/14 00:00:23;;;;;;;10.98;2.08;;;3.90;99.90;;;;;;5069308;28;20049;-63
2024/01/14 00:02:49;;;;;;;6.18;2.13;;;4.00;99.90;;;;;;5069747;28;20052;-63
2024/01/14 00:05:15;;;;;;;8.10;2.05;;;3.90;99.90;;;;;;5069401;28;20109;-63
2024/01/14 00:07:41;;;;;;;9.23;2.35;;;3.90;99.90;;;;;;5068712;28;20048;-64
2024/01/14 00:10:08;;;;;;;8.60;1.70;;;3.80;99.90;;;;;;5069084;28;20053;-63
2024/01/14 00:12:34;;;;;;;7.22;1.80;;;4.10;99.90;;;;;;5069732;28;20067;-62
2024/01/14 00:15:00;;;;;;;4.80;1.80;;;3.90;99.90;;;;;;5069616;28;20052;-64
2024/01/14 00:17:27;;;;;;;8.77;1.88;;;4.10;99.90;;;;;;5069832;28;20098;-63
2024/01/14 00:19:53;;;;;;;4.60;1.85;;;3.90;99.90;;;;;;5070217;28;20052;-64
2024/01/14 00:22:19;;;;;;;7.40;1.70;;;4.00;99.90;;;;;;5070128;28;20135;-64
2024/01/14 00:24:46;;;;;;;8.20;2.10;;;4.10;99.90;;;;;;5070542;28;20059;-63
2024/01/14 00:27:13;;;;;;;9.30;1.67;;;4.20;99.90;;;;;;5070279;28;20419;-63
2024/01/14 00:29:39;;;;;;;9.63;2.03;;;3.90;99.90;;;;;;5070291;28;20052;-64
2024/01/14 00:32:06;;;;;;;8.55;1.60;;;3.90;99.90;;;;;;5054145;28;20063;-65
2024/01/14 00:34:33;;;;;;;9.05;2.35;;;3.90;99.90;;;;;;5053990;28;20061;-64
2024/01/14 00:37:00;;;;;;;11.68;4.35;;;3.90;99.90;;;;;;5070300;28;20353;-64
2024/01/14 00:39:26;;;;;;;8.20;1.85;;;4.10;99.90;;;;;;5069938;28;20162;-64
2024/01/14 00:41:53;;;;;;;7.60;2.00;;;4.10;99.90;;;;;;5072270;28;20053;-64
2024/01/14 00:44:19;;;;;;;6.93;2.25;;;4.00;99.90;;;;;;5073772;28;20040;-63
2024/01/14 00:46:45;;;;;;;8.68;3.42;;;3.70;99.90;;;;;;5073772;28;20045;-64
2024/01/14 00:49:13;;;;;;;6.43;1.98;;;3.80;99.90;;;;;;5055580;28;20392;-64
2024/01/14 00:51:40;;;;;;;9.38;2.53;;;3.70;99.90;;;;;;5073476;28;20054;-65
2024/01/14 00:54:06;;;;;;;6.78;1.58;;;3.90;99.90;;;;;;5073123;28;20122;-64
2024/01/14 00:56:32;;;;;;;5.82;2.50;;;3.70;99.90;;;;;;5072837;28;20056;-64
2024/01/14 00:58:58;;;;;;;5.20;1.63;;;3.60;99.90;;;;;;5072045;28;20056;-64
2024/01/14 01:01:25;;;;;;;10.52;1.83;;;3.90;99.90;;;;;;5073614;28;20419;-63
2024/01/14 01:03:51;;;;;;;4.53;1.75;;;3.80;99.90;;;;;;5072122;28;20546;-64
2024/01/14 01:06:18;;;;;;;7.40;2.20;;;3.80;99.90;;;;;;5072224;28;20118;-64
2024/01/14 01:08:44;;;;;;;8.32;1.95;;;3.90;99.90;;;;;;5071019;28;20487;-64
2024/01/14 01:11:14;;;;;;;9.57;2.15;;;3.90;99.90;;;;;;5072234;28;20074;-63
2024/01/14 01:13:40;;;;;;;3.78;1.80;;;3.90;99.90;;;;;;5071615;28;20457;-65
2024/01/14 01:16:06;;;;;;;4.80;1.80;;;3.70;99.90;;;;;;5071526;28;20464;-63
2024/01/14 01:18:33;;;;;;;5.32;1.30;;;3.90;99.90;;;;;;5071078;28;20057;-64
2024/01/14 01:20:59;;;;;;;7.13;1.20;;;3.90;99.90;;;;;;5072621;28;20044;-65
2024/01/14 01:23:25;;;;;;;5.63;1.60;;;4.00;99.90;;;;;;5072323;28;20044;-63
2024/01/14 01:25:51;;;;;;;7.13;1.90;;;3.90;99.90;;;;;;5073068;28;20121;-65
2024/01/14 01:28:18;;;;;;;9.48;2.30;;;4.00;99.90;;;;;;5072032;28;20055;-63
2024/01/14 01:30:45;;;;;;;5.90;1.30;;;4.00;99.90;;;;;;5072823;28;20052;-64
2024/01/14 01:33:11;;;;;;;9.32;1.65;;;4.00;99.90;;;;;;5071859;28;20061;-64
2024/01/14 01:35:38;;;;;;;9.02;2.17;;;3.80;99.90;;;;;;5071963;28;20060;-63
2024/01/14 01:38:05;;;;;;;4.93;1.90;;;3.80;99.90;;;;;;5070653;28;20114;-63
2024/01/14 01:40:32;;;;;;;6.43;1.33;;;4.00;99.90;;;;;;5072255;28;20061;-65
2024/01/14 01:42:59;;;;;;;5.78;1.55;;;3.80;99.90;;;;;;5072804;28;20060;-63
2024/01/14 01:45:25;;;;;;;6.47;1.55;;;3.90;99.90;;;;;;5072192;28;20051;-63
2024/01/14 01:47:51;;;;;;;8.00;1.80;;;4.00;99.90;;;;;;5071649;28;20468;-64
2024/01/14 01:50:18;;;;;;;7.95;2.83;;;4.00;99.90;;;;;;5071235;28;20558;-63
2024/01/14 01:52:44;;;;;;;8.85;1.67;;;3.90;99.90;;;;;;5071891;28;20361;-64
2024/01/14 01:55:12;;;;;;;9.48;1.88;;;4.10;99.90;;;;;;5070882;28;20053;-63
2024/01/14 01:57:39;;;;;;;7.28;1.50;;;4.00;99.90;;;;;;5071595;28;20106;-63
2024/01/14 02:00:10;;;;;;;9.18;1.77;;;3.90;99.90;;;;;;5072008;28;20051;-64
2024/01/14 02:02:42;;;;;;;8.18;1.83;;;4.10;99.90;;;;;;5071900;28;20106;-63
2024/01/14 02:05:09;;;;;;;6.80;1.73;;;3.90;99.90;;;;;;5054123;28;20059;-63
2024/01/14 02:07:38;;;;;;;4.88;1.67;;;4.00;99.90;;;;;;5070255;28;20071;-64
2024/01/14 02:10:05;;;;;;;9.00;1.67;;;4.00;99.90;;;;;;5053969;28;20064;-65
2024/01/14 02:12:31;;;;;;;6.15;1.77;;;3.90;99.90;;;;;;5071080;28;20053;-65
2024/01/14 02:14:57;;;;;;;7.97;1.65;;;3.90;99.90;;;;;;5071442;28;20056;-64
2024/01/14 02:17:25;;;;;;;8.55;1.80;;;3.70;99.90;;;;;;5070008;28;20044;-64
2024/01/14 02:19:52;;;;;;;4.00;1.88;;;3.90;99.90;;;;;;5070171;28;20063;-64
2024/01/14 02:22:24;;;;;;;7.13;1.65;;;3.80;99.90;;;;;;5070570;28;20048;-64
2024/01/14 02:24:53;;;;;;;7.32;2.15;;;3.70;99.90;;;;;;5054754;28;20376;-65
2024/01/14 02:27:19;;;;;;;5.22;2.30;;;3.70;99.90;;;;;;5069776;28;20059;-64
2024/01/14 02:29:47;;;;;;;5.97;1.40;;;3.70;99.90;;;;;;5070531;28;20060;-63
2024/01/14 02:32:14;;;;;;;8.82;1.75;;;3.90;99.90;;;;;;5070259;28;20064;-64
2024/01/14 02:34:41;;;;;;;10.18;1.98;;;3.80;99.90;;;;;;5070205;28;20060;-64
2024/01/14 02:37:07;;;;;;;9.68;1.83;;;3.80;99.90;;;;;;5069661;28;20056;-63
2024/01/14 02:39:34;;;;;;;8.52;1.52;;;3.60;99.90;;;;;;5070505;28;20087;-64
2024/01/14 02:42:00;;;;;;;11.68;2.53;;;3.70;99.90;;;;;;5053254;28;20052;-64
2024/01/14 02:44:28;;;;;;;8.43;1.48;;;3.60;99.90;;;;;;5070710;28;20469;-63
2024/01/14 02:46:54;;;;;;;5.63;1.90;;;3.70;99.90;;;;;;5069977;28;20059;-66
2024/01/14 02:49:21;;;;;;;8.07;1.80;;;3.80;99.90;;;;;;5068906;28;20040;-64
2024/01/14 02:51:47;;;;;;;4.53;1.40;;;3.50;99.90;;;;;;5069881;28;20044;-63
2024/01/14 02:54:13;;;;;;;9.00;1.92;;;3.40;99.90;;;;;;5069569;28;20146;-64
2024/01/14 02:56:40;;;;;;;4.10;1.30;;;3.70;99.90;;;;;;5069678;28;20047;-64
2024/01/14 02:59:06;;;;;;;7.95;1.40;;;3.60;99.90;;;;;;5069671;28;20070;-65
2024/01/14 03:01:33;;;;;;;5.40;1.95;;;3.60;99.90;;;;;;5070670;28;20048;-64
2024/01/14 03:03:59;;;;;;;10.98;2.00;;;3.40;99.90;;;;;;5068674;28;20052;-64
2024/01/14 03:06:25;;;;;;;6.70;1.60;;;3.50;99.90;;;;;;5069408;28;20048;-64
2024/01/14 03:08:51;;;;;;;7.15;1.70;;;3.80;99.90;;;;;;5068716;28;20059;-65
2024/01/14 03:11:19;;;;;;;6.75;1.45;;;3.70;99.90;;;;;;5069519;28;20070;-65
2024/01/14 03:13:45;;;;;;;5.65;1.48;;;3.80;99.90;;;;;;5069100;28;20050;-63
2024/01/14 03:16:11;;;;;;;7.93;2.15;;;3.70;99.90;;;;;;5070424;28;20064;-64
2024/01/14 03:18:38;;;;;;;5.10;1.50;;;3.90;99.90;;;;;;5070675;28;20052;-64
2024/01/14 03:21:05;;;;;;;7.15;2.20;;;3.80;99.90;;;;;;5070877;28;20044;-63
2024/01/14 03:23:31;;;;;;;4.88;1.30;;;3.70;99.90;;;;;;5071285;28;20143;-63
2024/01/14 03:25:57;;;;;;;8.18;1.50;;;4.00;99.90;;;;;;5071179;28;20483;-64
2024/01/14 03:28:24;;;;;;;6.15;1.83;;;3.90;99.90;;;;;;5072136;28;20082;-63
2024/01/14 03:30:51;;;;;;;4.25;1.45;;;3.90;99.90;;;;;;5071668;28;20062;-64
2024/01/14 03:33:17;;;;;;;6.15;1.90;;;3.70;99.90;;;;;;5070299;28;20064;-63
2024/01/14 03:35:43;;;;;;;6.63;1.42;;;4.00;99.90;;;;;;5070045;28;20052;-64
2024/01/14 03:38:09;;;;;;;9.13;1.90;;;3.90;99.90;;;;;;5070389;28;20159;-64
2024/01/14 03:40:35;;;;;;;5.43;1.30;;;3.70;99.90;;;;;;5071758;28;20067;-63
2024/01/14 03:43:02;;;;;;;7.13;1.77;;;3.70;99.90;;;;;;5070771;28;20048;-64
2024/01/14 03:45:28;;;;;;;5.70;1.30;;;3.90;99.90;;;;;;5071587;28;20048;-62
2024/01/14 03:47:54;;;;;;;6.43;1.30;;;3.60;99.90;;;;;;5070336;28;20059;-63
2024/01/14 03:50:21;;;;;;;3.85;1.40;;;3.80;99.90;;;;;;5071332;28;20052;-64
2024/01/14 03:52:47;;;;;;;6.28;1.50;;;3.60;99.90;;;;;;5070219;28;20448;-63
2024/01/14 03:55:13;;;;;;;5.65;1.30;;;3.90;99.90;;;;;;5071110;28;20064;-61
2024/01/14 03:57:41;;;;;;;6.38;1.70;;;3.90;99.90;;;;;;5069050;28;20061;-60
2024/01/14 04:00:08;;;;;;;7.60;1.20;;;3.90;99.90;;;;;;5070320;28;20048;-61
2024/01/14 04:02:35;;;;;;;4.07;2.65;;;3.70;99.90;;;;;;5069206;28;20056;-61
2024/01/14 04:05:03;;;;;;;6.60;1.25;;;3.70;99.90;;;;;;5069067;28;20048;-62
2024/01/14 04:07:29;;;;;;;6.07;1.25;;;3.70;99.90;;;;;;5069784;28;20059;-62
2024/01/14 04:09:55;;;;;;;2.58;1.10;;;3.80;99.90;;;;;;5069868;28;20457;-61
2024/01/14 04:12:21;;;;;;;4.88;1.38;;;3.90;99.90;;;;;;5069724;28;20496;-61
2024/01/14 04:14:48;;;;;;;5.93;1.88;;;3.80;99.90;;;;;;5068812;28;20376;-62
2024/01/14 04:17:14;;;;;;;5.93;1.15;;;3.60;99.90;;;;;;5072171;28;20044;-62
2024/01/14 04:19:40;;;;;;;8.23;1.50;;;3.70;99.90;;;;;;5074145;28;20063;-61
2024/01/14 04:22:07;;;;;;;3.65;1.30;;;3.70;99.90;;;;;;5072841;28;20337;-61
2024/01/14 04:24:33;;;;;;;8.88;3.45;;;3.70;99.90;;;;;;5072643;28;20053;-63
2024/01/14 04:26:59;;;;;;;7.00;1.65;;;3.90;99.90;;;;;;5055913;28;20177;-62
2024/01/14 04:29:26;;;;;;;6.93;1.42;;;3.80;99.90;;;;;;5072141;28;20044;-63
2024/01/14 04:31:53;;;;;;;5.72;1.30;;;3.70;99.90;;;;;;5073821;28;20110;-61
2024/01/14 04:34:20;;;;;;;6.82;1.55;;;3.80;99.90;;;;;;5072361;28;20048;-62
2024/01/14 04:36:46;;;;;;;4.93;1.27;;;3.90;99.90;;;;;;5072590;28;20060;-61
2024/01/14 04:39:12;;;;;;;8.70;1.95;;;3.90;99.90;;;;;;5072681;28;20056;-61
2024/01/14 04:41:39;;;;;;;8.98;2.03;;;3.70;99.90;;;;;;5073052;28;20045;-62
2024/01/14 04:44:05;;;;;;;6.57;1.33;;;3.70;99.90;;;;;;5073458;28;20044;-63
2024/01/14 04:46:31;;;;;;;4.45;1.20;;;3.90;99.90;;;;;;5073467;28;20083;-65
2024/01/14 04:48:58;;;;;;;5.35;1.70;;;3.70;99.90;;;;;;5071569;28;20082;-63
2024/01/14 04:51:24;;;;;;;9.07;1.45;;;3.90;99.90;;;;;;5072634;28;20056;-64
2024/01/14 04:53:50;;;;;;;7.63;1.90;;;3.70;99.90;;;;;;5072764;28;20052;-63
2024/01/14 04:56:17;;;;;;;6.93;1.70;;;3.60;99.90;;;;;;5072581;28;20360;-65
2024/01/14 04:58:43;;;;;;;6.57;1.92;;;3.60;99.90;;;;;;5073354;28;20472;-63
2024/01/14 05:01:10;;;;;;;4.72;1.40;;;3.80;99.90;;;;;;5072622;28;20044;-63
2024/01/14 05:03:37;;;;;;;8.00;1.70;;;3.60;99.90;;;;;;5072300;28;20040;-64
2024/01/14 05:06:06;;;;;;;6.28;1.95;;;3.80;99.90;;;;;;5072424;28;20052;-63
2024/01/14 05:08:32;;;;;;;4.03;1.30;;;3.80;99.90;;;;;;5073336;28;20062;-65
2024/01/14 05:10:59;;;;;;;9.25;1.88;;;3.80;99.90;;;;;;5073469;28;20106;-64
2024/01/14 05:13:25;;;;;;;10.00;1.85;;;3.80;99.90;;;;;;5073241;28;20052;-64
2024/01/14 05:15:52;;;;;;;7.20;2.00;;;3.80;99.90;;;;;;5072714;28;20052;-63
2024/01/14 05:18:19;;;;;;;8.50;1.58;;;3.80;99.90;;;;;;5072713;28;20052;-63
2024/01/14 05:20:45;;;;;;;9.73;1.73;;;3.60;99.90;;;;;;5073169;28;20059;-64
2024/01/14 05:23:11;;;;;;;4.68;1.73;;;3.60;99.90;;;;;;5073122;28;20044;-63
2024/01/14 05:25:38;;;;;;;7.38;1.60;;;3.60;99.90;;;;;;5073025;28;20074;-64
2024/01/14 05:28:04;;;;;;;7.18;1.60;;;3.80;99.90;;;;;;5071721;28;20048;-64
2024/01/14 05:30:31;;;;;;;5.10;1.67;;;3.80;99.90;;;;;;5072228;28;20079;-64
2024/01/14 05:32:57;;;;;;;6.97;1.52;;;3.70;99.90;;;;;;5073406;28;20360;-64
2024/01/14 05:35:23;;;;;;;7.68;1.90;;;3.80;99.90;;;;;;5072010;28;20151;-65
2024/01/14 05:37:51;;;;;;;6.50;1.40;;;3.90;99.90;;;;;;5072214;28;20078;-63
2024/01/14 05:40:19;;;;;;;5.65;1.52;;;3.80;99.90;;;;;;5071526;28;20059;-64
2024/01/14 05:42:45;;;;;;;3.42;1.00;;;3.70;99.90;;;;;;5072788;28;20056;-64
2024/01/14 05:45:12;;;;;;;8.43;1.75;;;3.90;99.90;;;;;;5072036;28;20052;-63
2024/01/14 05:47:39;;;;;;;4.47;1.40;;;3.60;99.90;;;;;;5071483;28;20036;-64
2024/01/14 05:50:06;;;;;;;10.82;2.15;;;3.70;99.90;;;;;;5072070;28;20052;-63
2024/01/14 05:52:33;;;;;;;5.05;1.45;;;3.90;99.90;;;;;;5071160;28;20052;-65
2024/01/14 05:54:59;;;;;;;4.53;1.27;;;3.70;99.90;;;;;;5071284;28;20048;-63
2024/01/14 05:57:26;;;;;;;6.78;1.40;;;3.60;99.90;;;;;;5071171;28;20224;-63
2024/01/14 05:59:52;;;;;;;6.20;1.73;;;3.80;99.90;;;;;;5072164;28;20448;-64
2024/01/14 06:02:19;;;;;;;4.28;1.00;;;3.60;99.90;;;;;;5071932;28;20049;-63
2024/01/14 06:04:46;;;;;;;4.25;1.38;;;3.60;99.90;;;;;;5071830;28;20427;-65
2024/01/14 06:07:12;;;;;;;5.00;1.45;;;3.60;99.90;;;;;;5071502;28;20353;-65
2024/01/14 06:09:38;;;;;;;4.03;1.38;;;3.80;99.90;;;;;;5070664;28;20063;-64
2024/01/14 06:12:05;;;;;;;9.13;2.10;;;3.70;99.90;;;;;;5071773;28;20066;-64
2024/01/14 06:14:31;;;;;;;5.00;1.80;;;3.90;99.90;;;;;;5070577;28;20071;-64
2024/01/14 06:16:57;;;;;;;3.15;1.30;;;3.70;99.90;;;;;;5070336;28;20055;-64
2024/01/14 06:19:24;;;;;;;4.47;1.13;;;3.70;99.90;;;;;;5070539;28;20082;-64
2024/01/14 06:21:50;;;;;;;7.90;1.15;;;3.70;99.90;;;;;;5070162;28;20053;-65
2024/01/14 06:24:16;;;;;;;4.63;1.63;;;3.70;99.90;;;;;;5071799;28;20048;-66
2024/01/14 06:26:44;;;;;;;3.50;1.10;;;3.90;99.90;;;;;;5072098;28;20487;-65
2024/01/14 06:29:10;;;;;;;3.72;1.17;;;3.90;99.90;;;;;;5069818;28;20044;-64
2024/01/14 06:31:36;;;;;;;5.60;1.23;;;3.90;99.90;;;;;;5071531;28;20071;-64
2024/01/14 06:34:03;;;;;;;4.53;1.20;;;3.90;99.90;;;;;;5070442;28;20467;-64
2024/01/14 06:36:29;;;;;;;4.80;1.20;;;3.70;99.90;;;;;;5071108;28;20491;-64
2024/01/14 06:38:56;;;;;;;4.20;1.85;;;3.70;99.90;;;;;;5068732;28;20150;-64
2024/01/14 06:41:24;;;;;;;4.60;1.55;;;3.90;99.90;;;;;;5071332;28;20508;-64
2024/01/14 06:43:52;;;;;;;3.78;1.25;;;3.70;99.90;;;;;;5071296;28;20048;-64
2024/01/14 06:46:18;;;;;;;4.97;1.27;;;3.90;99.90;;;;;;5071154;28;20470;-64
2024/01/14 06:48:45;;;;;;;8.43;2.13;;;3.60;99.90;;;;;;5070155;28;20389;-64
2024/01/14 06:51:12;;;;;;;6.07;1.40;;;3.80;99.90;;;;;;5069965;28;20048;-64
2024/01/14 06:53:38;;;;;;;5.93;1.63;;;3.70;99.90;;;;;;5070330;28;20067;-64
2024/01/14 06:56:06;;;;;;;4.22;1.30;;;3.60;99.90;;;;;;5070225;28;20052;-63
2024/01/14 06:58:34;;;;;;;4.80;1.55;;;3.60;99.90;;;;;;5069882;28;20372;-63
2024/01/14 07:01:03;;;;;;;5.50;1.35;;;3.80;99.90;;;;;;5071164;28;20052;-64
2024/01/14 07:03:30;;;;;;;3.17;1.70;;;3.80;99.90;;;;;;5053909;28;20045;-64
2024/01/14 07:05:57;;;;;;;6.72;1.13;;;3.80;99.90;;;;;;5072110;28;20045;-63
2024/01/14 07:08:25;;;;;;;3.78;1.15;;;3.90;99.90;;;;;;5070087;28;20064;-64
2024/01/14 07:10:51;;;;;;;4.07;1.10;;;3.80;99.90;;;;;;5070125;28;20056;-64
2024/01/14 07:13:18;;;;;;;3.97;1.20;;;3.80;99.90;;;;;;5071177;28;20453;-63
2024/01/14 07:15:44;;;;;;;6.32;1.25;;;3.60;99.90;;;;;;5071602;28;20131;-64
2024/01/14 07:18:11;;;;;;;4.00;1.73;;;3.50;99.90;;;;;;5070467;28;20048;-63
2024/01/14 07:20:41;;;;;;;4.80;1.55;;;3.80;99.90;;;;;;5069853;28;20344;-63
2024/01/14 07:23:07;;;;;;;3.30;1.30;;;3.60;99.90;;;;;;5069796;28;20537;-63
2024/01/14 07:25:33;;;;;;;5.50;1.50;;;3.50;99.90;;;;;;5070898;28;20055;-63
2024/01/14 07:27:59;;;;;;;5.25;1.30;;;3.50;99.90;;;;;;5069115;28;20086;-64
2024/01/14 07:30:25;;;;;;;6.93;1.60;;;3.50;99.90;;;;;;5070942;28;20053;-64
2024/01/14 07:32:52;;;;;;;5.65;1.83;;;3.70;99.90;;;;;;5070756;28;20151;-64
2024/01/14 07:35:18;;;;;;;3.78;1.60;;;3.60;99.90;;;;;;5069524;28;20062;-63
2024/01/14 07:37:45;;;;;;;4.43;2.05;;;3.50;99.90;;;;;;5069226;28;20444;-63
2024/01/14 07:40:12;;;;;;;3.33;1.77;;;3.60;99.90;;;;;;5069565;28;20060;-64
2024/01/14 07:42:38;;;;;;;4.68;1.02;;;3.80;99.90;;;;;;5070690;28;20105;-63
2024/01/14 07:45:07;;;;;;;4.40;1.38;;;3.40;99.90;;;;;;5069457;28;20059;-63
2024/01/14 07:47:33;;;;;;;3.97;1.10;;;3.50;99.90;;;;;;5051691;28;20053;-66
2024/01/14 07:49:59;;;;;;;4.07;1.00;;;3.70;99.90;;;;;;5069052;28;20056;-65
2024/01/14 07:52:25;;;;;;;4.50;1.13;;;3.70;99.90;;;;;;5070222;28;20063;-63
2024/01/14 07:54:54;;;;;;;4.78;1.20;;;3.60;99.90;;;;;;5069095;28;20055;-64
2024/01/14 07:57:21;;;;;;;4.35;1.60;;;3.60;99.90;;;;;;5067889;28;20052;-65
2024/01/14 07:59:47;;;;;;;7.63;2.40;;;3.60;99.90;;;;;;5069860;28;20938;-63
2024/01/14 08:02:14;;;;;;;5.22;1.70;;;3.70;99.90;;;;;;5066007;28;20044;-63
2024/01/14 08:04:40;;;;;;;4.90;2.15;;;3.70;99.90;;;;;;5068372;28;20059;-63
2024/01/14 08:07:06;;;;;;;4.63;1.63;;;3.70;99.90;;;;;;5067346;28;20047;-63
2024/01/14 08:09:33;;;;;;;4.72;1.58;;;3.70;99.90;;;;;;5068895;28;20045;-65
2024/01/14 08:11:59;;;;;;;5.13;1.77;;;3.60;99.90;;;;;;5069259;28;20052;-64
2024/01/14 08:14:25;;;;;;;4.40;1.50;;;3.70;99.90;;;;;;5067904;28;20056;-63
2024/01/14 08:16:51;;;;;;;4.70;1.30;;;3.50;99.90;;;;;;5068814;28;20361;-63
2024/01/14 08:19:20;;;;;;;3.92;2.08;;;3.60;99.90;;;;;;5069713;28;20049;-64
2024/01/14 08:21:46;;;;;;;5.57;1.27;;;3.40;99.90;;;;;;5069071;28;20045;-64
2024/01/14 08:24:13;;;;;;;3.30;1.20;;;3.70;99.90;;;;;;5070197;28;20044;-63
2024/01/14 08:26:48;;;;;;;3.53;1.10;;;3.50;99.90;;;;;;5069956;28;20060;-65
2024/01/14 08:29:15;;;;;;;4.15;1.40;;;3.80;99.90;;;;;;5068748;28;20110;-60
2024/01/14 08:31:41;;;;;;;4.85;1.42;;;3.70;99.90;;;;;;5069069;28;20044;-61
2024/01/14 08:34:08;;;;;;;5.95;1.60;;;3.50;99.90;;;;;;5069029;28;20057;-61
2024/01/14 08:36:36;;;;;;;3.10;1.60;;;3.60;99.90;;;;;;5069727;28;20067;-61
2024/01/14 08:39:04;;;;;;;4.30;1.42;;;3.70;99.90;;;;;;5052141;28;20048;-61
2024/01/14 08:41:30;;;;;;;3.50;1.77;;;3.60;99.90;;;;;;5068344;28;20306;-61
2024/01/14 08:43:59;;;;;;;3.53;1.85;;;3.80;99.90;;;;;;5069847;28;20048;-61
2024/01/14 08:46:27;;;;;;;5.18;2.50;;;3.70;99.90;;;;;;5069704;28;20399;-66
2024/01/14 08:48:55;;;;;;;3.58;1.90;;;3.90;99.90;;;;;;5069082;28;20060;-64
2024/01/14 08:51:21;;;;;;;4.40;1.95;;;3.70;99.90;;;;;;5070170;28;20497;-64
2024/01/14 08:53:49;;;;;;;4.13;2.10;;;3.70;99.90;;;;;;5069472;28;20045;-63
2024/01/14 08:56:15;;;;;;;6.10;3.13;;;4.00;99.90;;;;;;5051809;28;20396;-64
2024/01/14 08:58:43;;;;;;;6.30;3.83;;;3.70;99.90;;;;;;5071506;28;20052;-63
2024/01/14 09:01:09;;;;;;;8.00;4.50;;;3.70;99.90;;;;;;5070910;28;20060;-63
2024/01/14 09:03:35;;;;;;;11.43;5.82;;;3.80;99.90;;;;;;5074871;28;20059;-62
2024/01/14 09:06:01;;;;;;;10.43;5.70;;;3.60;99.90;;;;;;5075383;28;20143;-64
2024/01/14 09:08:28;;;;;;;9.52;6.03;;;3.60;99.90;;;;;;5072023;28;20385;-64
2024/01/14 09:10:54;;;;;;;11.02;6.03;;;3.60;99.90;;;;;;5072194;28;20084;-63
2024/01/14 09:13:20;;;;;;;13.13;6.07;;;3.50;99.90;;;;;;5066023;28;20053;-63
2024/01/14 09:15:46;;;;;;;13.50;6.70;;;3.50;99.90;;;;;;5074811;28;20048;-60
2024/01/14 09:18:13;;;;;;;14.13;7.18;;;3.70;99.90;;;;;;5075045;28;20052;-60
2024/01/14 09:20:39;;;;;;;15.50;7.40;;;3.50;99.90;;;;;;5076343;28;20052;-62
2024/01/14 09:23:07;;;;;;;16.55;8.38;;;3.50;99.90;;;;;;5075678;28;20054;-64
2024/01/14 09:25:34;;;;;;;17.33;9.48;;;3.50;99.90;;;;;;5076708;28;20354;-62
2024/01/14 09:28:00;;;;;;;18.35;8.63;;;3.70;99.90;;;;;;5075595;28;20048;-61
2024/01/14 09:30:26;;;;;;;19.77;11.25;;;3.80;99.90;;;;;;5074855;28;20048;-62
2024/01/14 09:32:53;;;;;;;20.20;10.88;;;3.80;99.90;;;;;;5076674;28;20071;-61
2024/01/14 09:35:19;;;;;;;23.45;11.93;;;3.60;99.90;;;;;;5076038;28;20127;-62
2024/01/14 09:37:45;;;;;;;21.48;11.35;;;3.80;99.90;;;;;;5075389;28;20468;-60
2024/01/14 09:40:14;;;;;;;20.77;11.00;;;3.90;99.90;;;;;;5075106;28;20059;-63
2024/01/14 09:42:43;;;;;;;22.10;12.18;;;3.70;99.90;;;;;;5075025;28;20050;-61
2024/01/14 09:45:09;;;;;;;23.70;12.05;;;3.90;99.90;;;;;;5058440;28;20391;-62
2024/01/14 09:47:36;;;;;;;20.95;11.27;;;3.80;99.90;;;;;;5074574;28;20392;-61
2024/01/14 09:50:03;;;;;;;20.65;11.10;;;3.70;99.90;;;;;;5073290;28;20059;-61
2024/01/14 09:52:31;;;;;;;23.60;11.95;;;3.70;99.90;;;;;;5073497;28;20056;-63
2024/01/14 09:54:57;;;;;;;21.95;10.57;;;3.70;99.90;;;;;;5053508;28;20049;-62
2024/01/14 09:57:24;;;;;;;23.38;12.73;;;4.00;99.90;;;;;;5074380;28;20075;-63
2024/01/14 09:59:52;;;;;;;22.73;10.93;;;3.70;99.90;;;;;;5074565;28;20045;-61
2024/01/14 10:02:19;;;;;;;22.90;12.07;;;3.70;99.90;;;;;;5074371;28;20453;-61
2024/01/14 10:04:46;;;;;;;24.17;12.82;;;3.80;99.90;;;;;;5091367;28;20052;-61
2024/01/14 10:07:13;;;;;;;21.50;12.55;;;4.00;99.90;;;;;;5074862;28;20091;-61
2024/01/14 10:09:40;;;;;;;22.27;11.90;;;3.80;99.90;;;;;;5057956;28;20060;-63
2024/01/14 10:12:10;;;;;;;20.90;11.63;;;4.00;99.90;;;;;;5058287;28;20056;-63
2024/01/14 10:14:37;;;;;;;23.70;12.48;;;3.90;99.90;;;;;;5074231;28;20058;-61
2024/01/14 10:17:04;;;;;;;23.02;11.82;;;4.10;99.90;;;;;;5075433;28;20114;-62
2024/01/14 10:19:31;;;;;;;20.73;11.07;;;3.90;99.90;;;;;;5074384;28;20464;-61
2024/01/14 10:21:57;;;;;;;20.15;11.02;;;3.90;99.90;;;;;;5075271;28;20412;-61
2024/01/14 10:24:24;;;;;;;16.05;9.13;;;3.90;99.90;;;;;;5074204;28;20048;-61
2024/01/14 10:26:54;;;;;;;18.83;10.90;;;3.90;99.90;;;;;;5057792;28;20440;-60
2024/01/14 10:29:21;;;;;;;14.73;8.90;;;4.00;99.90;;;;;;5074200;28;20056;-60
2024/01/14 10:31:48;;;;;;;18.48;10.02;;;3.80;99.90;;;;;;5057508;28;20060;-60
2024/01/14 10:34:17;;;;;;;18.33;9.18;;;4.00;99.90;;;;;;5074958;28;20044;-60
2024/01/14 10:36:43;;;;;;;19.58;9.60;;;4.00;99.90;;;;;;5074315;28;20499;-62
2024/01/14 10:39:11;;;;;;;19.65;9.65;;;4.10;99.90;;;;;;5073254;28;20048;-62
2024/01/14 10:41:42;;;;;;;19.13;10.10;;;4.10;99.90;;;;;;5072749;28;20102;-61
2024/01/14 10:44:09;;;;;;;22.38;11.52;;;4.20;99.90;;;;;;5073685;28;20059;-61
2024/01/14 10:46:38;;;;;;;21.65;11.32;;;3.90;99.90;;;;;;5073612;28;20472;-63
2024/01/14 10:49:08;;;;;;;18.25;10.00;;;3.80;99.90;;;;;;5072370;28;20465;-61
2024/01/14 10:51:45;;;;;;;20.25;11.65;;;4.10;99.90;;;;;;5073679;28;20063;-62
2024/01/14 10:54:33;;;;;;;21.23;11.95;;;4.10;99.90;;;;;;5063485;28;20077;-64
2024/01/14 10:57:37;;;;;;;19.77;10.38;;;4.20;99.90;;;;;;5056121;28;20059;-63
2024/01/14 11:00:06;;;;;;;22.63;12.90;;;4.30;99.90;;;;;;5055271;28;20528;-63
2024/01/14 11:02:37;;;;;;;22.52;12.35;;;4.10;99.90;;;;;;5073325;28;20055;-63
2024/01/14 11:05:07;;;;;;;20.67;12.38;;;4.10;99.90;;;;;;5073268;28;20044;-62
2024/01/14 11:07:36;;;;;;;25.52;14.13;;;4.40;99.90;;;;;;5072805;28;20036;-64
2024/01/14 11:10:05;;;;;;;26.17;13.65;;;4.10;99.90;;;;;;5072555;28;20484;-63
2024/01/14 11:12:36;;;;;;;28.90;15.10;;;4.20;99.90;;;;;;5072165;28;20411;-64
2024/01/14 11:15:15;;;;;;;26.35;14.02;;;4.00;99.90;;;;;;5072033;28;20044;-64
2024/01/14 11:18:12;;;;;;;25.50;13.32;;;4.00;99.90;;;;;;5071077;28;20048;-63
2024/01/14 11:20:41;;;;;;;27.20;13.63;;;4.20;99.90;;;;;;5010778;28;20076;-63
2024/01/14 11:23:08;;;;;;;25.33;14.63;;;4.10;99.90;;;;;;5059610;28;20094;-63
2024/01/14 11:25:36;;;;;;;22.95;14.27;;;4.30;99.90;;;;;;5052772;28;20049;-63
2024/01/14 11:28:05;;;;;;;24.65;14.68;;;4.20;99.90;;;;;;5073487;28;20440;-63
2024/01/14 11:30:53;;;;;;;28.17;14.00;;;4.10;99.90;;;;;;5072708;28;20380;-62
2024/01/14 11:33:51;;;;;;;27.20;13.48;;;4.20;99.90;;;;;;5072217;28;20056;-62
2024/01/14 11:36:55;;;;;;;25.02;13.40;;;4.20;99.90;;;;;;5044061;28;20057;-62
2024/01/14 11:39:22;;;;;;;30.48;16.92;;;4.10;99.90;;;;;;5066746;28;20369;-63
2024/01/14 11:41:48;;;;;;;25.90;13.55;;;3.90;99.90;;;;;;5072655;28;20044;-62
2024/01/14 11:44:30;;;;;;;28.65;15.52;;;4.20;99.90;;;;;;5071483;28;20090;-63
2024/01/14 11:46:56;;;;;;;21.92;12.93;;;3.90;99.90;;;;;;5053835;28;20380;-64
2024/01/14 11:49:26;;;;;;;26.15;14.80;;;4.00;99.90;;;;;;5071639;28;20048;-63
2024/01/14 11:52:00;;;;;;;27.02;13.88;;;4.00;99.90;;;;;;5072639;28;20384;-63
2024/01/14 11:54:27;;;;;;;26.13;13.55;;;3.90;99.90;;;;;;5071613;28;20460;-63
2024/01/14 11:56:54;;;;;;;26.50;15.65;;;3.90;99.90;;;;;;5071726;28;20102;-64
2024/01/14 11:59:20;;;;;;;22.48;14.07;;;3.90;99.90;;;;;;5072849;28;20059;-64
2024/01/14 12:01:47;;;;;;;25.02;13.98;;;3.90;99.90;;;;;;5071505;28;20086;-64
2024/01/14 12:04:14;;;;;;;23.75;12.50;;;3.90;99.90;;;;;;5072610;28;20067;-64
2024/01/14 12:06:46;;;;;;;21.73;12.38;;;4.10;99.90;;;;;;5067852;28;20453;-63
2024/01/14 12:09:13;;;;;;;19.80;11.38;;;4.00;99.90;;;;;;5067833;28;20316;-63
2024/01/14 12:11:43;;;;;;;25.38;13.98;;;3.90;99.90;;;;;;5069729;28;20057;-63
2024/01/14 12:14:10;;;;;;;22.38;13.75;;;4.30;99.90;;;;;;5071836;28;20434;-64
2024/01/14 12:16:39;;;;;;;23.95;13.32;;;4.00;99.90;;;;;;5068684;28;20052;-65
2024/01/14 12:19:15;;;;;;;26.90;15.02;;;4.10;99.90;;;;;;5037952;28;20045;-65
2024/01/14 12:21:44;;;;;;;20.50;12.00;;;4.30;99.90;;;;;;5071895;28;20057;-65
2024/01/14 12:24:12;;;;;;;21.55;12.10;;;4.20;99.90;;;;;;5070743;28;20045;-64
2024/01/14 12:26:38;;;;;;;20.30;12.65;;;4.30;99.90;;;;;;5065400;28;20048;-64
2024/01/14 12:29:04;;;;;;;19.77;11.20;;;4.30;99.90;;;;;;5062613;28;20050;-64
2024/01/14 12:31:34;;;;;;;18.73;11.73;;;4.10;99.90;;;;;;5070692;28;20041;-63
2024/01/14 12:34:08;;;;;;;19.70;10.45;;;4.20;99.90;;;;;;5070959;28;20052;-64
2024/01/14 12:36:35;;;;;;;17.38;10.95;;;4.40;99.90;;;;;;5071140;28;20053;-63
2024/01/14 12:39:03;;;;;;;13.05;8.25;;;4.20;99.90;;;;;;5073822;28;20075;-65
2024/01/14 12:41:29;;;;;;;13.35;7.25;;;4.20;99.90;;;;;;5074799;28;20045;-63
2024/01/14 12:43:56;;;;;;;13.40;7.18;;;4.40;99.90;;;;;;5072788;28;20041;-64
2024/01/14 12:46:22;;;;;;;9.68;5.22;;;4.20;99.90;;;;;;5072871;28;20110;-65
2024/01/14 12:48:49;;;;;;;8.57;5.38;;;4.30;99.90;;;;;;5072837;28;20072;-64
2024/01/14 12:51:22;;;;;;;8.02;4.72;;;4.10;99.90;;;;;;5073203;28;20048;-65